Time;durP1;ratioP1;P1;durP2;ratioP2;P2;SDS_P1;SDS_P2;PMS_P1;PMS_P2;Temp;Humidity;BMP_temperature;BMP_pressure;BME280_temperature;BME280_humidity;BME280_pressure;Samples;Min_cycle;Max_cycle;Signal;HPM_P1;HPM_P2
2021/08/09 00:00:21;;;;;;;0.10;0.10;;;14.00;99.90;;;;;;5090412;28;20654;-85
2021/08/09 00:02:47;;;;;;;0.50;0.50;;;14.10;99.90;;;;;;5077982;28;20197;-85
2021/08/09 00:05:13;;;;;;;0.20;0.20;;;14.10;99.90;;;;;;5066277;28;20193;-85
2021/08/09 00:07:38;;;;;;;0.20;0.20;;;14.10;99.90;;;;;;5092295;28;20188;-85
2021/08/09 00:10:04;;;;;;;0.20;0.20;;;14.10;99.90;;;;;;5094955;28;20233;-85
2021/08/09 00:12:30;;;;;;;0.30;0.30;;;14.00;99.90;;;;;;5094673;28;20246;-85
2021/08/09 00:14:57;;;;;;;0.20;0.20;;;13.90;99.90;;;;;;5076644;28;20216;-85
2021/08/09 00:17:22;;;;;;;0.10;0.10;;;13.50;99.90;;;;;;5073275;28;20192;-85
2021/08/09 00:19:48;;;;;;;0.30;0.30;;;13.40;99.90;;;;;;5073707;28;20200;-86
2021/08/09 00:22:14;;;;;;;0.10;0.10;;;13.20;99.90;;;;;;5094194;28;20200;-86
2021/08/09 00:24:39;;;;;;;0.20;0.20;;;13.20;99.90;;;;;;5074347;28;20683;-84
2021/08/09 00:27:05;;;;;;;0.20;0.20;;;13.10;99.90;;;;;;5084850;28;20180;-85
2021/08/09 00:29:30;;;;;;;0.20;0.20;;;13.10;99.90;;;;;;5073010;28;20547;-85
2021/08/09 00:31:56;;;;;;;0.20;0.20;;;13.00;99.90;;;;;;5094397;28;20253;-86
2021/08/09 00:34:21;;;;;;;0.10;0.10;;;12.90;99.90;;;;;;5075007;28;20188;-85
2021/08/09 00:36:47;;;;;;;0.20;0.20;;;12.90;99.90;;;;;;5092800;28;20187;-84
2021/08/09 00:39:13;;;;;;;1.90;0.23;;;12.90;99.90;;;;;;5075973;28;20225;-85
2021/08/09 00:41:38;;;;;;;0.50;0.20;;;12.80;99.90;;;;;;5087693;28;20278;-85
2021/08/09 00:44:04;;;;;;;0.10;0.10;;;12.80;99.90;;;;;;5092228;28;20198;-85
2021/08/09 00:46:31;;;;;;;0.93;0.30;;;12.80;99.90;;;;;;5094162;28;20191;-85
2021/08/09 00:48:58;;;;;;;0.30;0.30;;;12.80;99.90;;;;;;5075733;28;20188;-86
2021/08/09 00:51:24;;;;;;;0.10;0.10;;;12.90;99.90;;;;;;5075859;28;20660;-84
2021/08/09 00:53:50;;;;;;;0.20;0.20;;;13.00;99.90;;;;;;5073073;28;20208;-85
2021/08/09 00:56:16;;;;;;;0.13;0.13;;;13.20;99.90;;;;;;5093974;28;20713;-85
2021/08/09 00:58:42;;;;;;;0.10;0.10;;;13.30;99.90;;;;;;5075514;28;20729;-85
2021/08/09 01:01:10;;;;;;;0.30;0.30;;;13.40;99.90;;;;;;5092803;28;20267;-85
2021/08/09 01:03:36;;;;;;;0.13;0.13;;;13.40;99.90;;;;;;5083084;28;20202;-85
2021/08/09 01:06:01;;;;;;;0.10;0.10;;;13.50;99.90;;;;;;5075417;28;20183;-85
2021/08/09 01:08:36;;;;;;;0.77;0.73;;;13.50;99.90;;;;;;5065326;28;20187;-85
2021/08/09 01:11:23;;;;;;;0.30;0.30;;;13.50;99.90;;;;;;5087020;28;20183;-84
2021/08/09 01:14:12;;;;;;;0.20;0.20;;;13.40;99.90;;;;;;5074232;28;20208;-85
2021/08/09 01:16:39;;;;;;;0.40;0.40;;;13.20;99.90;;;;;;5087336;28;20199;-84
2021/08/09 01:19:23;;;;;;;0.23;0.10;;;13.10;99.90;;;;;;5083324;28;20746;-86
2021/08/09 01:21:52;;;;;;;0.00;0.00;;;12.90;99.90;;;;;;5089801;28;20609;-85
2021/08/09 01:24:32;;;;;;;0.00;0.00;;;13.00;99.90;;;;;;5073847;28;20185;-85
2021/08/09 01:27:37;;;;;;;0.40;0.40;;;12.90;99.90;;;;;;5073424;28;20193;-85
2021/08/09 01:30:09;;;;;;;0.53;0.53;;;12.90;99.90;;;;;;5091109;28;20192;-84
2021/08/09 01:32:38;;;;;;;0.10;0.10;;;12.90;99.90;;;;;;5072993;28;20310;-84
2021/08/09 01:35:08;;;;;;;0.67;0.40;;;12.80;99.90;;;;;;5073889;28;20192;-84
2021/08/09 01:37:40;;;;;;;0.07;0.07;;;12.80;99.90;;;;;;5094009;28;20194;-85
2021/08/09 01:40:08;;;;;;;1.60;0.40;;;12.70;99.90;;;;;;5076551;28;20208;-85
2021/08/09 01:42:38;;;;;;;0.20;0.20;;;12.70;99.90;;;;;;5073057;28;20255;-85
2021/08/09 01:45:05;;;;;;;0.10;0.10;;;12.70;99.90;;;;;;5074243;28;20837;-85
2021/08/09 01:47:34;;;;;;;0.30;0.30;;;12.60;99.90;;;;;;5093976;28;20182;-86
2021/08/09 01:50:00;;;;;;;0.00;0.00;;;12.50;99.90;;;;;;5083311;28;20185;-85
2021/08/09 01:52:26;;;;;;;0.53;0.20;;;12.40;99.90;;;;;;5093940;28;20207;-85
2021/08/09 01:54:52;;;;;;;0.03;0.03;;;12.40;99.90;;;;;;5075814;28;20341;-84
2021/08/09 01:57:18;;;;;;;0.10;0.10;;;12.30;99.90;;;;;;5094563;28;20234;-85
2021/08/09 01:59:43;;;;;;;0.20;0.20;;;12.30;99.90;;;;;;5076068;28;20207;-84
2021/08/09 02:02:09;;;;;;;0.10;0.10;;;12.30;99.90;;;;;;5075931;28;20209;-85
2021/08/09 02:04:34;;;;;;;0.13;0.13;;;12.30;99.90;;;;;;5063607;28;20192;-85
2021/08/09 02:07:00;;;;;;;0.10;0.10;;;12.40;99.90;;;;;;5092413;28;20182;-85
2021/08/09 02:09:28;;;;;;;0.00;0.00;;;12.40;99.90;;;;;;5074317;28;20208;-84
2021/08/09 02:12:04;;;;;;;0.20;0.20;;;12.40;99.90;;;;;;5055985;28;20209;-85
2021/08/09 02:14:33;;;;;;;0.10;0.10;;;12.60;99.90;;;;;;5088254;28;20189;-85
2021/08/09 02:17:10;;;;;;;0.10;0.10;;;12.90;99.90;;;;;;5075447;28;20184;-85
2021/08/09 02:19:42;;;;;;;0.10;0.10;;;13.10;99.90;;;;;;5074556;28;20271;-85
2021/08/09 02:22:22;;;;;;;0.30;0.10;;;13.30;99.90;;;;;;5066265;28;20283;-84
2021/08/09 02:25:05;;;;;;;0.20;0.20;;;13.30;99.90;;;;;;5075534;28;20207;-85
2021/08/09 02:27:38;;;;;;;0.47;0.30;;;13.20;99.90;;;;;;5074727;28;20186;-90
2021/08/09 02:30:05;;;;;;;0.30;0.10;;;13.00;99.90;;;;;;5092780;28;20179;-85
2021/08/09 02:32:32;;;;;;;0.20;0.20;;;13.00;99.90;;;;;;5072305;28;20567;-84
2021/08/09 02:34:59;;;;;;;0.10;0.10;;;13.00;99.90;;;;;;5060032;28;20193;-85
2021/08/09 02:37:27;;;;;;;0.30;0.30;;;12.90;99.90;;;;;;5070963;28;20212;-86
2021/08/09 02:39:54;;;;;;;0.10;0.10;;;12.80;99.90;;;;;;5074486;28;20207;-85
2021/08/09 02:42:20;;;;;;;0.10;0.10;;;12.70;99.90;;;;;;5074830;28;20220;-85
2021/08/09 02:44:47;;;;;;;2.13;0.47;;;12.60;99.90;;;;;;5074528;28;20184;-85
2021/08/09 02:47:13;;;;;;;0.17;0.17;;;12.50;99.90;;;;;;5093504;28;20258;-85
2021/08/09 02:49:45;;;;;;;0.30;0.30;;;12.40;99.90;;;;;;5072439;28;20184;-84
2021/08/09 02:52:11;;;;;;;0.30;0.10;;;12.50;99.90;;;;;;5072058;28;20699;-86
2021/08/09 02:54:38;;;;;;;0.10;0.10;;;12.50;99.90;;;;;;5088682;28;20322;-85
2021/08/09 02:57:05;;;;;;;0.10;0.10;;;12.60;99.90;;;;;;5072698;28;20190;-85
2021/08/09 02:59:31;;;;;;;0.43;0.43;;;12.70;99.90;;;;;;5075995;28;20218;-85
2021/08/09 03:01:57;;;;;;;0.10;0.10;;;12.90;99.90;;;;;;5077241;28;20179;-85
2021/08/09 03:04:25;;;;;;;0.13;0.13;;;13.00;99.90;;;;;;5075792;28;20656;-84
2021/08/09 03:06:53;;;;;;;0.20;0.20;;;12.90;99.90;;;;;;5094136;28;20542;-84
2021/08/09 03:09:18;;;;;;;0.13;0.13;;;12.90;99.90;;;;;;5078600;28;20184;-85
2021/08/09 03:11:44;;;;;;;0.10;0.10;;;12.80;99.90;;;;;;5068633;28;20555;-85
2021/08/09 03:14:27;;;;;;;0.10;0.10;;;12.70;99.90;;;;;;5078580;28;20191;-86
2021/08/09 03:16:53;;;;;;;0.10;0.10;;;13.00;99.90;;;;;;5082688;28;20541;-85
2021/08/09 03:19:19;;;;;;;0.10;0.10;;;13.20;99.90;;;;;;5076957;28;20292;-85
2021/08/09 03:21:59;;;;;;;0.10;0.10;;;13.30;99.90;;;;;;5095981;28;20179;-85
2021/08/09 03:24:28;;;;;;;0.00;0.00;;;13.40;99.90;;;;;;5064696;28;20181;-85
2021/08/09 03:26:53;;;;;;;0.20;0.20;;;13.50;99.90;;;;;;5078710;28;20239;-85
2021/08/09 03:29:19;;;;;;;0.10;0.10;;;13.60;99.90;;;;;;5078021;28;20173;-85
2021/08/09 03:31:46;;;;;;;0.10;0.10;;;13.60;99.90;;;;;;5077871;28;20183;-85
2021/08/09 03:34:12;;;;;;;0.97;0.30;;;13.70;99.90;;;;;;5066331;28;20586;-85
2021/08/09 03:36:47;;;;;;;0.40;0.10;;;13.70;99.90;;;;;;5086943;28;20241;-84
2021/08/09 03:39:14;;;;;;;0.73;0.20;;;13.70;99.90;;;;;;5071165;28;20552;-85
2021/08/09 03:41:40;;;;;;;0.10;0.10;;;13.80;99.90;;;;;;5068132;28;20739;-85
2021/08/09 03:44:05;;;;;;;0.13;0.13;;;13.80;99.90;;;;;;5078039;28;20204;-85
2021/08/09 03:46:32;;;;;;;1.90;0.17;;;13.80;99.90;;;;;;5072690;28;20184;-88
2021/08/09 03:48:58;;;;;;;0.40;0.40;;;13.80;99.90;;;;;;5070259;28;20201;-85
2021/08/09 03:51:23;;;;;;;0.20;0.20;;;13.80;99.90;;;;;;5074115;28;20188;-85
2021/08/09 03:53:50;;;;;;;0.33;0.20;;;13.70;99.90;;;;;;5074235;28;20338;-86
2021/08/09 03:56:15;;;;;;;0.30;0.30;;;13.70;99.90;;;;;;5073969;28;20929;-85
2021/08/09 03:58:41;;;;;;;0.10;0.10;;;13.60;99.90;;;;;;5094094;28;20200;-85
2021/08/09 04:01:07;;;;;;;0.27;0.27;;;13.40;99.90;;;;;;5075159;28;20168;-86
2021/08/09 04:03:35;;;;;;;0.33;0.33;;;13.20;99.90;;;;;;5075923;28;20196;-86
2021/08/09 04:06:01;;;;;;;0.33;0.20;;;12.90;99.90;;;;;;5089729;28;20193;-86
2021/08/09 04:08:26;;;;;;;0.20;0.20;;;12.60;99.90;;;;;;5076688;28;20725;-85
2021/08/09 04:10:52;;;;;;;0.20;0.10;;;12.50;99.90;;;;;;5062285;28;20194;-85
2021/08/09 04:13:18;;;;;;;0.47;0.20;;;12.50;99.90;;;;;;5092790;28;20242;-85
2021/08/09 04:15:44;;;;;;;0.10;0.10;;;12.60;99.90;;;;;;5073676;28;20279;-84
2021/08/09 04:18:09;;;;;;;0.10;0.10;;;12.90;99.90;;;;;;5093334;28;20220;-85
2021/08/09 04:20:39;;;;;;;0.10;0.10;;;12.90;99.90;;;;;;5074086;28;20204;-86
2021/08/09 04:23:15;;;;;;;0.03;0.03;;;13.00;99.90;;;;;;5075703;28;20198;-85
2021/08/09 04:25:40;;;;;;;0.20;0.20;;;13.20;99.90;;;;;;5084971;28;20270;-85
2021/08/09 04:28:08;;;;;;;0.10;0.10;;;13.30;99.90;;;;;;5094110;28;20215;-85
2021/08/09 04:30:34;;;;;;;0.20;0.20;;;13.00;99.90;;;;;;5075945;28;20656;-85
2021/08/09 04:33:03;;;;;;;0.20;0.20;;;12.90;99.90;;;;;;5071828;28;20211;-86
2021/08/09 04:35:29;;;;;;;0.20;0.20;;;13.00;99.90;;;;;;5072540;28;20185;-85
2021/08/09 04:37:55;;;;;;;0.10;0.10;;;12.90;99.90;;;;;;5072157;28;20766;-85
2021/08/09 04:40:31;;;;;;;0.57;0.30;;;12.90;99.90;;;;;;5092707;28;20215;-85
2021/08/09 04:42:57;;;;;;;0.10;0.10;;;12.90;99.90;;;;;;5084912;28;20723;-86
2021/08/09 04:45:24;;;;;;;0.20;0.20;;;12.80;99.90;;;;;;5069410;28;20184;-86
2021/08/09 04:47:50;;;;;;;0.10;0.10;;;12.80;99.90;;;;;;5077731;28;20179;-86
2021/08/09 04:50:16;;;;;;;0.20;0.20;;;13.00;99.90;;;;;;5086823;28;20823;-86
2021/08/09 04:52:42;;;;;;;0.20;0.20;;;13.00;99.90;;;;;;5077244;28;20232;-85
2021/08/09 04:55:09;;;;;;;0.13;0.13;;;13.00;99.90;;;;;;5092046;28;20195;-86
2021/08/09 04:57:35;;;;;;;0.10;0.10;;;13.10;99.90;;;;;;5075466;28;20277;-86
2021/08/09 05:00:01;;;;;;;0.10;0.10;;;13.30;99.90;;;;;;5072927;28;20208;-86
2021/08/09 05:02:26;;;;;;;0.10;0.10;;;13.40;99.90;;;;;;5075698;28;20294;-86
2021/08/09 05:04:52;;;;;;;0.20;0.20;;;13.50;99.90;;;;;;5075688;28;20187;-85
2021/08/09 05:07:18;;;;;;;0.20;0.20;;;13.50;99.90;;;;;;5094310;28;20176;-85
2021/08/09 05:09:43;;;;;;;0.20;0.20;;;13.70;99.90;;;;;;5074182;28;20272;-85
2021/08/09 05:12:09;;;;;;;0.17;0.17;;;14.00;99.90;;;;;;5094667;28;20200;-84
2021/08/09 05:14:35;;;;;;;0.20;0.20;;;14.20;99.90;;;;;;5074662;28;20189;-86
2021/08/09 05:17:01;;;;;;;0.17;0.17;;;14.10;99.90;;;;;;5075151;28;20195;-88
2021/08/09 05:19:27;;;;;;;0.23;0.23;;;14.30;99.90;;;;;;5088778;28;20211;-87
2021/08/09 05:21:52;;;;;;;0.10;0.10;;;14.30;99.90;;;;;;5073337;28;20179;-87
2021/08/09 05:24:18;;;;;;;0.10;0.10;;;14.40;99.90;;;;;;5089167;28;20180;-86
2021/08/09 05:26:43;;;;;;;0.07;0.07;;;14.30;99.90;;;;;;5074539;28;20604;-86
2021/08/09 05:29:33;;;;;;;0.47;0.33;;;14.40;99.90;;;;;;5085678;28;20197;-87
2021/08/09 05:31:59;;;;;;;1.53;0.80;;;14.50;99.90;;;;;;5073716;28;20208;-86
2021/08/09 05:34:25;;;;;;;2.23;0.20;;;14.50;99.90;;;;;;5076940;28;20191;-87
2021/08/09 05:36:51;;;;;;;0.20;0.20;;;14.50;99.90;;;;;;5080371;28;20188;-86
2021/08/09 05:39:16;;;;;;;0.37;0.37;;;14.70;99.90;;;;;;5074883;28;20212;-86
2021/08/09 05:41:42;;;;;;;4.10;0.40;;;14.90;99.90;;;;;;5073004;28;20224;-85
2021/08/09 05:44:07;;;;;;;0.40;0.40;;;14.60;99.90;;;;;;5068111;28;20741;-86
2021/08/09 05:46:33;;;;;;;0.60;0.50;;;14.60;99.90;;;;;;5071692;28;20606;-86
2021/08/09 05:48:58;;;;;;;0.53;0.40;;;14.70;99.90;;;;;;5072663;28;20173;-86
2021/08/09 05:51:38;;;;;;;0.23;0.23;;;14.70;99.90;;;;;;5073970;28;20683;-86
2021/08/09 05:54:03;;;;;;;0.43;0.43;;;14.90;99.90;;;;;;5091905;28;20168;-87
2021/08/09 05:56:29;;;;;;;0.10;0.10;;;15.00;99.90;;;;;;5070290;28;20661;-87
2021/08/09 05:58:54;;;;;;;0.40;0.40;;;15.10;99.90;;;;;;5091630;28;20644;-86
2021/08/09 06:01:21;;;;;;;0.27;0.27;;;15.20;99.90;;;;;;5074363;28;20653;-86
2021/08/09 06:03:46;;;;;;;0.37;0.20;;;15.40;99.90;;;;;;5071142;28;20758;-87
2021/08/09 06:06:22;;;;;;;0.10;0.10;;;15.30;99.90;;;;;;5069977;28;20170;-86
2021/08/09 06:08:48;;;;;;;0.10;0.10;;;15.20;99.90;;;;;;5090962;28;20188;-86
2021/08/09 06:11:14;;;;;;;0.10;0.10;;;15.10;99.90;;;;;;5092189;28;20185;-86
2021/08/09 06:13:40;;;;;;;0.23;0.20;;;15.30;99.90;;;;;;5091384;28;20278;-86
2021/08/09 06:16:06;;;;;;;2.30;0.30;;;15.50;99.90;;;;;;5073584;28;20668;-85
2021/08/09 06:18:35;;;;;;;0.40;0.40;;;16.10;99.90;;;;;;5097876;28;20183;-86
2021/08/09 06:21:03;;;;;;;0.20;0.20;;;16.30;99.90;;;;;;5065994;28;20195;-81
2021/08/09 06:23:29;;;;;;;0.30;0.30;;;16.00;99.90;;;;;;5088671;28;20203;-82
2021/08/09 06:25:55;;;;;;;0.30;0.30;;;16.20;99.90;;;;;;5090197;28;20252;-82
2021/08/09 06:28:21;;;;;;;0.97;0.27;;;16.60;99.90;;;;;;5083719;28;20618;-82
2021/08/09 06:30:47;;;;;;;0.10;0.10;;;16.60;99.90;;;;;;5090792;28;20238;-83
2021/08/09 06:33:13;;;;;;;0.10;0.10;;;16.10;99.90;;;;;;5071676;28;20630;-82
2021/08/09 06:35:39;;;;;;;0.10;0.10;;;15.80;99.90;;;;;;5072677;28;20178;-82
2021/08/09 06:38:06;;;;;;;0.20;0.20;;;15.70;99.90;;;;;;5065582;28;20187;-84
2021/08/09 06:40:33;;;;;;;0.10;0.10;;;15.80;99.90;;;;;;5067426;28;21007;-85
2021/08/09 06:43:00;;;;;;;0.17;0.17;;;15.90;99.90;;;;;;5071960;28;20721;-85
2021/08/09 06:45:25;;;;;;;0.10;0.10;;;16.00;99.90;;;;;;5090283;28;20187;-85
2021/08/09 06:47:51;;;;;;;0.20;0.20;;;16.20;99.90;;;;;;5071045;28;20187;-83
2021/08/09 06:50:16;;;;;;;0.13;0.13;;;16.50;99.90;;;;;;5074514;28;20191;-82
2021/08/09 06:52:42;;;;;;;0.13;0.13;;;17.10;99.90;;;;;;5087922;28;20280;-84
2021/08/09 06:55:08;;;;;;;0.83;0.67;;;17.50;99.90;;;;;;5085148;28;20192;-83
2021/08/09 06:57:33;;;;;;;0.73;0.73;;;17.80;99.90;;;;;;5081111;28;20249;-84
2021/08/09 06:59:59;;;;;;;0.67;0.67;;;18.20;99.90;;;;;;5087489;28;20938;-84
2021/08/09 07:02:25;;;;;;;0.37;0.30;;;18.40;99.90;;;;;;5078576;28;20197;-84
2021/08/09 07:04:51;;;;;;;0.13;0.13;;;18.60;99.90;;;;;;5078043;28;20594;-83
2021/08/09 07:07:16;;;;;;;0.30;0.30;;;18.80;99.90;;;;;;5073251;28;20180;-82
2021/08/09 07:09:42;;;;;;;0.10;0.10;;;18.90;99.90;;;;;;5088723;28;20675;-82
2021/08/09 07:12:09;;;;;;;0.20;0.20;;;19.00;99.90;;;;;;5076901;28;20693;-81
2021/08/09 07:14:36;;;;;;;0.10;0.10;;;19.10;99.90;;;;;;5092057;28;20180;-81
2021/08/09 07:17:02;;;;;;;0.10;0.10;;;19.40;99.90;;;;;;5092231;28;20188;-82
2021/08/09 07:19:27;;;;;;;0.10;0.10;;;19.60;99.90;;;;;;5089395;28;20215;-81
2021/08/09 07:21:53;;;;;;;0.20;0.20;;;19.80;99.90;;;;;;5092920;28;20181;-81
2021/08/09 07:24:19;;;;;;;0.20;0.20;;;19.70;99.90;;;;;;5098098;28;20640;-81
2021/08/09 07:26:44;;;;;;;0.20;0.20;;;19.70;99.90;;;;;;5082840;28;20229;-81
2021/08/09 07:29:10;;;;;;;0.20;0.20;;;19.60;99.90;;;;;;5077787;28;20279;-82
2021/08/09 07:31:35;;;;;;;0.20;0.20;;;19.10;99.90;;;;;;5074124;28;20185;-84
2021/08/09 07:34:01;;;;;;;0.30;0.30;;;19.00;99.90;;;;;;5074485;28;20216;-83
2021/08/09 07:36:27;;;;;;;0.47;0.23;;;19.20;99.90;;;;;;5091988;28;20188;-83
2021/08/09 07:38:52;;;;;;;0.13;0.13;;;19.30;99.90;;;;;;5072124;28;20207;-82
2021/08/09 07:41:18;;;;;;;0.40;0.40;;;19.20;99.90;;;;;;5086629;28;20181;-84
2021/08/09 07:43:46;;;;;;;0.70;0.30;;;19.10;99.90;;;;;;5091860;28;20197;-84
2021/08/09 07:46:11;;;;;;;0.30;0.30;;;19.20;99.90;;;;;;5090326;28;20226;-84
2021/08/09 07:48:37;;;;;;;0.10;0.10;;;19.10;99.90;;;;;;5075509;28;20739;-83
2021/08/09 07:51:02;;;;;;;0.40;0.40;;;19.10;99.90;;;;;;5083712;28;20176;-83
2021/08/09 07:53:29;;;;;;;0.63;0.63;;;19.20;99.90;;;;;;5084710;28;20200;-81
2021/08/09 07:55:54;;;;;;;0.50;0.50;;;19.30;99.90;;;;;;5090498;28;20229;-83
2021/08/09 07:58:20;;;;;;;0.57;0.57;;;19.40;99.90;;;;;;5071340;28;20202;-83
2021/08/09 08:00:46;;;;;;;0.97;0.70;;;19.50;99.90;;;;;;5084366;28;20211;-83
2021/08/09 08:03:11;;;;;;;0.20;0.20;;;19.50;99.90;;;;;;5078041;28;20219;-83
2021/08/09 08:05:37;;;;;;;0.23;0.23;;;19.50;99.90;;;;;;5072031;28;20176;-83
2021/08/09 08:08:03;;;;;;;1.17;0.30;;;19.50;99.90;;;;;;5086100;28;20177;-83
2021/08/09 08:10:29;;;;;;;0.17;0.17;;;19.60;99.90;;;;;;5090318;28;20284;-83
2021/08/09 08:12:54;;;;;;;0.30;0.30;;;19.80;99.90;;;;;;5077153;28;20826;-82
2021/08/09 08:15:20;;;;;;;0.30;0.30;;;19.70;99.90;;;;;;5079759;28;20193;-83
2021/08/09 08:17:46;;;;;;;0.40;0.33;;;19.70;99.90;;;;;;5074164;28;20207;-83
2021/08/09 08:20:12;;;;;;;0.30;0.30;;;19.80;99.90;;;;;;5087553;28;20583;-82
2021/08/09 08:22:38;;;;;;;0.33;0.33;;;20.10;99.90;;;;;;5077355;28;20678;-83
2021/08/09 08:25:04;;;;;;;0.20;0.20;;;20.40;99.90;;;;;;5086822;28;20187;-82
2021/08/09 08:27:29;;;;;;;0.30;0.30;;;20.30;99.90;;;;;;5079927;28;20181;-83
2021/08/09 08:29:55;;;;;;;0.43;0.30;;;20.50;99.90;;;;;;5074275;28;20660;-83
2021/08/09 08:32:21;;;;;;;0.20;0.20;;;20.50;99.90;;;;;;5072957;28;20211;-84
2021/08/09 08:34:48;;;;;;;0.20;0.20;;;20.60;99.90;;;;;;5088483;28;20585;-83
2021/08/09 08:37:14;;;;;;;0.37;0.37;;;20.70;99.90;;;;;;5074134;28;20656;-83
2021/08/09 08:39:39;;;;;;;0.20;0.20;;;20.80;99.90;;;;;;5070665;28;20249;-83
2021/08/09 08:42:05;;;;;;;0.30;0.30;;;20.80;99.90;;;;;;5088991;28;20257;-83
2021/08/09 08:44:30;;;;;;;0.10;0.10;;;20.60;99.90;;;;;;5073400;28;20556;-84
2021/08/09 08:46:57;;;;;;;1.43;0.87;;;21.00;99.90;;;;;;5084281;28;20189;-83
2021/08/09 08:49:24;;;;;;;0.20;0.20;;;21.10;99.90;;;;;;5092002;28;20276;-83
2021/08/09 08:51:50;;;;;;;0.20;0.20;;;21.30;99.90;;;;;;5090370;28;20229;-84
2021/08/09 08:54:16;;;;;;;0.43;0.40;;;21.50;99.90;;;;;;5069286;28;20192;-84
2021/08/09 08:56:43;;;;;;;0.30;0.30;;;21.60;99.90;;;;;;5089877;28;20181;-84
2021/08/09 08:59:17;;;;;;;0.30;0.30;;;21.50;99.90;;;;;;5068168;28;20204;-84
2021/08/09 09:01:45;;;;;;;0.30;0.30;;;21.80;99.90;;;;;;5072100;28;20187;-84
2021/08/09 09:04:27;;;;;;;0.30;0.30;;;21.60;99.90;;;;;;5071437;28;20187;-82
2021/08/09 09:07:00;;;;;;;0.10;0.10;;;21.60;99.90;;;;;;5088958;28;20180;-83
2021/08/09 09:09:26;;;;;;;0.60;0.60;;;21.90;99.90;;;;;;5073936;28;20184;-83
2021/08/09 09:11:52;;;;;;;0.40;0.40;;;22.00;99.90;;;;;;5074408;28;20191;-82
2021/08/09 09:14:26;;;;;;;0.37;0.37;;;22.10;99.90;;;;;;5092436;28;20184;-82
2021/08/09 09:16:52;;;;;;;0.10;0.10;;;22.20;99.90;;;;;;5071896;28;20227;-83
2021/08/09 09:19:34;;;;;;;0.30;0.30;;;22.50;99.90;;;;;;5074469;28;20287;-83
2021/08/09 09:22:05;;;;;;;0.30;0.30;;;22.80;99.90;;;;;;5090696;28;20560;-83
2021/08/09 09:24:31;;;;;;;0.30;0.30;;;23.00;99.90;;;;;;5074181;28;20687;-83
2021/08/09 09:27:07;;;;;;;0.30;0.30;;;23.30;99.90;;;;;;5091302;28;20221;-82
2021/08/09 09:29:37;;;;;;;0.67;0.30;;;23.20;99.90;;;;;;5074490;28;20196;-84
2021/08/09 09:32:12;;;;;;;0.40;0.40;;;23.00;99.90;;;;;;5073917;28;20208;-84
2021/08/09 09:34:49;;;;;;;0.40;0.40;;;22.60;99.90;;;;;;5091525;28;20237;-83
2021/08/09 09:37:26;;;;;;;0.40;0.40;;;22.60;99.90;;;;;;5092313;28;20180;-83
2021/08/09 09:39:53;;;;;;;0.87;0.87;;;22.60;99.90;;;;;;5087179;28;20216;-83
2021/08/09 09:42:19;;;;;;;0.53;0.53;;;22.50;99.90;;;;;;5087332;28;20251;-83
2021/08/09 09:44:44;;;;;;;0.67;0.50;;;22.40;99.90;;;;;;5071728;28;20212;-83
2021/08/09 09:47:27;;;;;;;0.30;0.30;;;22.60;99.90;;;;;;5072819;28;20207;-82
2021/08/09 09:49:58;;;;;;;0.30;0.30;;;22.90;99.90;;;;;;5088240;28;20188;-83
2021/08/09 09:52:47;;;;;;;0.30;0.30;;;23.10;99.90;;;;;;5072207;28;20715;-83
2021/08/09 09:55:15;;;;;;;0.67;0.50;;;23.10;99.90;;;;;;5089910;28;20185;-83
2021/08/09 09:57:43;;;;;;;0.30;0.30;;;23.10;99.90;;;;;;5073549;28;20648;-83
2021/08/09 10:00:16;;;;;;;0.20;0.20;;;23.30;99.90;;;;;;5070441;28;20751;-84
2021/08/09 10:02:44;;;;;;;0.10;0.10;;;23.50;99.90;;;;;;5078946;28;20204;-83
2021/08/09 10:05:11;;;;;;;0.20;0.20;;;23.70;99.90;;;;;;5071894;28;20177;-84
2021/08/09 10:07:38;;;;;;;1.10;0.47;;;23.90;99.90;;;;;;5067084;28;20216;-84
2021/08/09 10:10:09;;;;;;;0.47;0.40;;;24.20;99.90;;;;;;5071383;28;20275;-84
2021/08/09 10:12:37;;;;;;;0.40;0.40;;;24.30;99.90;;;;;;5069299;28;20200;-83
2021/08/09 10:15:04;;;;;;;0.10;0.10;;;24.50;99.90;;;;;;5071929;28;20185;-85
2021/08/09 10:17:31;;;;;;;0.20;0.20;;;24.70;99.90;;;;;;5072372;28;20185;-85
2021/08/09 10:20:06;;;;;;;0.30;0.30;;;24.80;99.90;;;;;;5066496;28;20204;-84
2021/08/09 10:22:32;;;;;;;0.50;0.50;;;24.60;99.90;;;;;;5069315;28;20214;-84
2021/08/09 10:24:58;;;;;;;0.20;0.20;;;24.60;99.90;;;;;;5070765;28;20660;-84
2021/08/09 10:27:45;;;;;;;0.20;0.20;;;24.50;99.90;;;;;;5068653;28;20196;-84
2021/08/09 10:30:18;;;;;;;0.30;0.30;;;24.10;99.90;;;;;;5068843;28;20192;-85
2021/08/09 10:32:55;;;;;;;0.40;0.40;;;23.90;99.90;;;;;;5071480;28;20208;-85
2021/08/09 10:35:33;;;;;;;0.23;0.23;;;23.70;99.90;;;;;;5068159;28;20191;-83
2021/08/09 10:38:14;;;;;;;3.93;0.40;;;23.50;99.90;;;;;;5070822;28;20189;-84
2021/08/09 10:40:41;;;;;;;0.20;0.20;;;23.20;99.90;;;;;;5068523;28;20300;-83
2021/08/09 10:43:06;;;;;;;0.30;0.30;;;23.10;99.90;;;;;;5070007;28;20238;-83
2021/08/09 10:45:44;;;;;;;0.57;0.57;;;22.90;99.90;;;;;;5071479;28;20660;-83
2021/08/09 10:48:10;;;;;;;0.83;0.40;;;22.70;99.90;;;;;;5069471;28;20184;-85
2021/08/09 10:50:39;;;;;;;3.40;0.47;;;22.50;99.90;;;;;;5069380;28;20229;-84
2021/08/09 10:53:25;;;;;;;0.20;0.20;;;22.20;99.90;;;;;;5069124;28;20267;-84
2021/08/09 10:55:58;;;;;;;0.63;0.37;;;21.90;99.90;;;;;;5065155;28;20230;-84
2021/08/09 10:58:46;;;;;;;0.33;0.30;;;21.70;99.90;;;;;;5068782;28;20196;-84
2021/08/09 11:01:15;;;;;;;0.30;0.30;;;21.50;99.90;;;;;;5083059;28;20203;-84
2021/08/09 11:04:03;;;;;;;0.30;0.30;;;21.50;99.90;;;;;;5072673;28;20253;-85
2021/08/09 11:06:52;;;;;;;0.43;0.43;;;21.60;99.90;;;;;;5071605;28;20177;-84
2021/08/09 11:09:33;;;;;;;0.27;0.13;;;22.10;99.90;;;;;;5068230;28;20184;-83
2021/08/09 11:12:17;;;;;;;1.50;0.27;;;22.40;99.90;;;;;;5087075;28;20177;-84
2021/08/09 11:15:02;;;;;;;0.30;0.30;;;23.00;99.90;;;;;;5085789;28;20195;-85
2021/08/09 11:17:29;;;;;;;0.23;0.23;;;23.50;99.90;;;;;;5084900;28;20333;-85
2021/08/09 11:20:13;;;;;;;0.40;0.40;;;24.00;99.90;;;;;;5067778;28;20583;-85
2021/08/09 11:22:39;;;;;;;0.43;0.40;;;24.50;99.90;;;;;;5091720;28;20200;-84
2021/08/09 11:25:27;;;;;;;0.40;0.40;;;24.80;99.90;;;;;;5085677;28;20176;-84
2021/08/09 11:28:04;;;;;;;0.20;0.20;;;24.90;99.90;;;;;;5075010;28;20187;-84
2021/08/09 11:30:50;;;;;;;0.40;0.40;;;25.30;99.90;;;;;;5090243;28;20212;-84
2021/08/09 11:33:28;;;;;;;0.20;0.20;;;25.20;99.90;;;;;;5070904;28;20200;-83
2021/08/09 11:36:03;;;;;;;0.33;0.30;;;25.30;99.90;;;;;;5089914;28;20180;-85
2021/08/09 11:38:44;;;;;;;0.97;0.60;;;25.00;99.90;;;;;;5074406;28;20184;-84
2021/08/09 11:41:12;;;;;;;0.50;0.30;;;25.00;99.90;;;;;;5084092;28;20190;-84
2021/08/09 11:43:38;;;;;;;0.10;0.10;;;24.60;99.90;;;;;;5093396;28;20231;-85
2021/08/09 11:46:09;;;;;;;0.20;0.20;;;24.60;99.90;;;;;;5093988;28;20538;-85
2021/08/09 11:48:38;;;;;;;0.60;0.60;;;24.60;99.90;;;;;;5075292;28;20238;-84
2021/08/09 11:51:06;;;;;;;0.47;0.30;;;24.80;99.90;;;;;;5072388;28;20195;-84
2021/08/09 11:53:33;;;;;;;1.20;0.60;;;25.10;99.90;;;;;;5070869;28;20205;-85
2021/08/09 11:56:14;;;;;;;0.47;0.47;;;25.00;99.90;;;;;;5080374;28;20208;-85
2021/08/09 11:58:42;;;;;;;0.30;0.30;;;24.90;99.90;;;;;;5075577;28;20180;-85
2021/08/09 12:01:08;;;;;;;0.30;0.30;;;24.70;99.90;;;;;;5073630;28;20297;-83
2021/08/09 12:03:34;;;;;;;0.60;0.37;;;24.70;99.90;;;;;;5070501;28;20200;-85
2021/08/09 12:06:23;;;;;;;0.30;0.27;;;24.60;99.90;;;;;;5073631;28;20263;-85
2021/08/09 12:08:59;;;;;;;0.20;0.20;;;24.40;99.90;;;;;;5091249;28;20191;-85
2021/08/09 12:11:30;;;;;;;0.23;0.23;;;24.20;99.90;;;;;;5092464;28;20261;-85
2021/08/09 12:14:07;;;;;;;0.40;0.40;;;24.20;99.90;;;;;;5074725;28;20295;-84
2021/08/09 12:17:21;;;;;;;0.20;0.20;;;24.40;99.90;;;;;;5092620;28;20176;-83
2021/08/09 12:19:49;;;;;;;0.53;0.47;;;24.70;99.90;;;;;;5068614;28;20208;-83
2021/08/09 12:22:41;;;;;;;0.27;0.27;;;24.60;99.90;;;;;;5091287;28;20262;-84
2021/08/09 12:25:15;;;;;;;0.33;0.33;;;24.60;99.90;;;;;;5071750;28;20264;-84
2021/08/09 12:27:42;;;;;;;0.73;0.30;;;24.50;99.90;;;;;;5074086;28;20172;-85
2021/08/09 12:30:13;;;;;;;0.27;0.27;;;24.30;99.90;;;;;;5074837;28;20192;-85
2021/08/09 12:33:01;;;;;;;0.30;0.30;;;24.20;99.90;;;;;;5090648;28;20719;-85
2021/08/09 12:35:37;;;;;;;0.30;0.30;;;24.20;99.90;;;;;;5091399;28;20176;-84
2021/08/09 12:38:04;;;;;;;0.20;0.20;;;23.90;99.90;;;;;;5089738;28;20184;-85
2021/08/09 12:40:49;;;;;;;1.60;0.70;;;23.80;99.90;;;;;;5075448;28;20216;-83
2021/08/09 12:43:16;;;;;;;0.30;0.30;;;23.80;99.90;;;;;;5072033;28;20290;-85
2021/08/09 12:45:43;;;;;;;1.80;0.50;;;23.70;99.90;;;;;;5088067;28;20235;-85
2021/08/09 12:48:10;;;;;;;0.20;0.20;;;23.80;99.90;;;;;;5089892;28;20266;-85
2021/08/09 12:50:38;;;;;;;0.20;0.20;;;23.90;99.90;;;;;;5073910;28;20188;-84
2021/08/09 12:53:04;;;;;;;0.33;0.33;;;24.00;99.90;;;;;;5091659;28;20608;-84
2021/08/09 12:55:31;;;;;;;0.10;0.10;;;24.00;99.90;;;;;;5074801;28;20192;-85
2021/08/09 12:57:59;;;;;;;2.30;1.03;;;23.80;99.90;;;;;;5074074;28;20199;-84